createdAt,value
2019-02-27T00:02:22.736Z,57.88
2019-02-27T00:04:48.946Z,59.01
2019-02-27T00:07:15.296Z,59.43
2019-02-27T00:09:42.639Z,59.71
2019-02-27T00:12:09.052Z,60.03
2019-02-27T00:14:35.701Z,60.02
2019-02-27T00:17:02.573Z,59.81
2019-02-27T00:19:31.329Z,59.74
2019-02-27T00:21:57.479Z,59.59
2019-02-27T00:24:23.812Z,59.23
2019-02-27T00:26:50.411Z,59.89
2019-02-27T00:29:16.819Z,60.15
2019-02-27T00:31:45.991Z,59.48
2019-02-27T00:34:11.975Z,59.30
2019-02-27T00:36:38.701Z,60.05
2019-02-27T00:39:07.544Z,60.36
2019-02-27T00:41:34.305Z,60.57
2019-02-27T00:44:01.458Z,60.48
2019-02-27T00:46:29.521Z,59.16
2019-02-27T00:48:59.085Z,58.23
2019-02-27T00:51:24.093Z,57.90
2019-02-27T00:53:50.678Z,58.47
2019-02-27T00:56:17.057Z,59.00
2019-02-27T00:58:43.689Z,59.57
2019-02-27T01:01:12.673Z,60.34
2019-02-27T01:03:38.616Z,60.82
2019-02-27T01:06:05.393Z,61.09
2019-02-27T01:08:31.723Z,61.66
2019-02-27T01:10:58.444Z,62.13
2019-02-27T01:13:25.090Z,62.01
2019-02-27T01:15:51.437Z,61.59
2019-02-27T01:18:18.130Z,61.53
2019-02-27T01:20:58.478Z,62.12
2019-02-27T01:23:24.836Z,62.38
2019-02-27T01:25:51.398Z,62.39
2019-02-27T01:28:17.723Z,63.20
2019-02-27T01:30:44.108Z,63.67
2019-02-27T01:33:10.427Z,63.78
2019-02-27T01:35:37.158Z,64.37
2019-02-27T01:38:05.386Z,64.07
2019-02-27T01:40:32.058Z,63.24
2019-02-27T01:42:58.425Z,62.87
2019-02-27T01:45:25.002Z,62.68
2019-02-27T01:47:51.319Z,62.82
2019-02-27T01:50:28.330Z,63.05
2019-02-27T01:52:54.688Z,63.19
2019-02-27T01:55:22.441Z,63.26
2019-02-27T01:57:49.221Z,63.42
2019-02-27T02:00:15.548Z,63.50
2019-02-27T02:02:43.803Z,63.61
2019-02-27T02:05:10.306Z,63.73
2019-02-27T02:07:40.158Z,63.72
2019-02-27T02:10:09.388Z,63.73
2019-02-27T02:12:35.991Z,63.53
2019-02-27T02:15:16.586Z,63.38
2019-02-27T02:18:18.429Z,63.29
2019-02-27T02:21:08.081Z,63.69
2019-02-27T02:24:30.409Z,63.88
2019-02-27T02:27:13.896Z,63.79
2019-02-27T02:30:12.780Z,64.08
2019-02-27T02:33:02.539Z,64.01
2019-02-27T02:35:55.628Z,64.34
2019-02-27T02:38:39.063Z,64.18
2019-02-27T02:41:46.784Z,64.32
2019-02-27T02:44:37.661Z,64.18
2019-02-27T02:47:45.687Z,63.86
2019-02-27T02:50:35.597Z,63.76
2019-02-27T02:53:34.555Z,63.77
2019-02-27T02:56:23.938Z,63.79
2019-02-27T02:59:32.317Z,63.87
2019-02-27T03:02:12.959Z,64.05
2019-02-27T03:04:51.624Z,64.30
2019-02-27T03:07:44.740Z,64.21
2019-02-27T03:10:25.174Z,63.90
2019-02-27T03:13:14.904Z,63.93
2019-02-27T03:15:46.930Z,63.90
2019-02-27T03:18:46.372Z,64.15
2019-02-27T03:22:03.106Z,63.57
2019-02-27T03:24:37.322Z,63.56
2019-02-27T03:27:32.932Z,63.83
2019-02-27T03:30:34.211Z,63.86
2019-02-27T03:33:27.251Z,64.08
2019-02-27T03:36:14.029Z,64.54
2019-02-27T03:38:59.118Z,64.54
2019-02-27T03:41:43.963Z,64.67
2019-02-27T03:44:24.460Z,65.21
2019-02-27T03:47:39.782Z,65.12
2019-02-27T03:50:41.453Z,65.27
2019-02-27T03:53:22.759Z,65.20
2019-02-27T03:56:15.545Z,65.20
2019-02-27T03:59:05.576Z,64.41
2019-02-27T04:01:47.514Z,64.64
2019-02-27T04:04:48.222Z,65.15
2019-02-27T04:07:32.768Z,65.11
2019-02-27T04:09:59.126Z,65.45
2019-02-27T04:12:25.468Z,65.79
2019-02-27T04:14:52.299Z,65.79
2019-02-27T04:17:26.441Z,65.69
2019-02-27T04:19:52.875Z,65.82
2019-02-27T04:22:19.194Z,66.05
2019-02-27T04:24:45.743Z,65.95
2019-02-27T04:27:12.140Z,66.08
2019-02-27T04:29:41.073Z,66.54
2019-02-27T04:32:09.666Z,66.91
2019-02-27T04:34:36.524Z,67.01
2019-02-27T04:37:02.892Z,66.92
2019-02-27T04:39:30.599Z,67.01
2019-02-27T04:41:56.893Z,66.83
2019-02-27T04:44:23.312Z,66.93
2019-02-27T04:46:49.885Z,66.82
2019-02-27T04:49:16.474Z,66.66
2019-02-27T04:51:43.069Z,66.69
2019-02-27T04:54:09.468Z,66.87
2019-02-27T04:56:35.755Z,67.19
2019-02-27T04:59:02.178Z,67.43
2019-02-27T05:01:28.615Z,67.07
2019-02-27T05:03:54.958Z,67.28
2019-02-27T05:06:21.263Z,67.59
2019-02-27T05:08:47.603Z,67.62
2019-02-27T05:11:14.841Z,67.79
2019-02-27T05:13:41.551Z,67.76
2019-02-27T05:16:08.223Z,67.47
2019-02-27T05:18:34.923Z,67.48
2019-02-27T05:21:01.659Z,67.59
2019-02-27T05:23:30.840Z,67.77
2019-02-27T05:25:57.068Z,67.54
2019-02-27T05:28:23.629Z,67.52
2019-02-27T05:30:49.939Z,67.68
2019-02-27T05:33:16.335Z,67.92
2019-02-27T05:35:42.662Z,68.01
2019-02-27T05:38:12.527Z,68.10
2019-02-27T05:40:38.874Z,68.09
2019-02-27T05:43:05.465Z,68.01
2019-02-27T05:45:31.795Z,67.79
2019-02-27T05:47:58.412Z,67.92
2019-02-27T05:50:25.004Z,67.99
2019-02-27T05:52:51.331Z,68.30
2019-02-27T05:55:17.743Z,68.17
2019-02-27T05:57:44.047Z,67.62
2019-02-27T06:00:14.481Z,67.85
2019-02-27T06:02:41.962Z,67.60
2019-02-27T06:05:09.542Z,67.49
2019-02-27T06:07:36.118Z,67.44
2019-02-27T06:10:07.209Z,67.33
2019-02-27T06:12:33.929Z,67.53
2019-02-27T06:15:00.252Z,67.21
2019-02-27T06:17:26.865Z,66.90
2019-02-27T06:19:53.265Z,66.72
2019-02-27T06:22:19.584Z,66.42
2019-02-27T06:24:46.393Z,66.64
2019-02-27T06:27:13.883Z,66.17
2019-02-27T06:29:40.252Z,66.21
2019-02-27T06:32:06.838Z,65.93
2019-02-27T06:34:33.425Z,65.65
2019-02-27T06:36:59.878Z,65.67
2019-02-27T06:39:26.248Z,65.59
2019-02-27T06:41:52.563Z,65.14
2019-02-27T06:44:19.146Z,65.21
2019-02-27T06:46:45.549Z,65.47
2019-02-27T06:49:11.903Z,64.70
2019-02-27T06:51:38.552Z,64.60
2019-02-27T06:54:05.166Z,64.25
2019-02-27T06:56:32.743Z,64.18
2019-02-27T06:58:59.106Z,64.18
2019-02-27T07:01:25.665Z,64.17
2019-02-27T07:03:52.039Z,63.90
2019-02-27T07:06:21.319Z,63.72
2019-02-27T07:08:46.640Z,63.36
2019-02-27T07:11:12.991Z,63.14
2019-02-27T07:13:39.550Z,62.87
2019-02-27T07:16:06.174Z,62.53
2019-02-27T07:18:32.501Z,61.94
2019-02-27T07:20:59.239Z,61.28
2019-02-27T07:23:25.927Z,60.37
2019-02-27T07:25:52.264Z,59.94
2019-02-27T07:28:18.586Z,59.43
2019-02-27T07:30:44.911Z,58.83
2019-02-27T07:33:11.308Z,57.86
2019-02-27T07:35:37.641Z,57.28
2019-02-27T07:38:04.130Z,57.03
2019-02-27T07:40:30.446Z,56.50
2019-02-27T07:42:57.037Z,55.96
2019-02-27T07:45:23.444Z,55.09
2019-02-27T07:47:49.909Z,54.78
2019-02-27T07:50:17.613Z,54.60
2019-02-27T07:52:43.922Z,54.18
2019-02-27T07:55:21.838Z,54.10
2019-02-27T07:57:44.879Z,53.59
2019-02-27T08:00:22.264Z,53.04
2019-02-27T08:02:48.855Z,52.42
2019-02-27T08:05:15.204Z,51.97
2019-02-27T08:07:41.823Z,51.36
2019-02-27T08:10:18.766Z,50.70
2019-02-27T08:12:45.340Z,50.47
2019-02-27T08:15:21.708Z,50.18
2019-02-27T08:17:49.358Z,49.48
2019-02-27T08:20:20.216Z,49.14
2019-02-27T08:22:44.673Z,48.53
2019-02-27T08:25:15.654Z,48.30
2019-02-27T08:27:43.873Z,48.34
2019-02-27T08:30:21.663Z,48.47
2019-02-27T08:32:48.297Z,48.63
2019-02-27T08:35:16.619Z,48.40
2019-02-27T08:37:42.882Z,47.83
2019-02-27T08:40:11.902Z,47.53
2019-02-27T08:42:40.535Z,47.12
2019-02-27T08:45:19.846Z,46.84
2019-02-27T08:47:44.355Z,46.46
2019-02-27T08:50:13.945Z,46.63
2019-02-27T08:52:40.274Z,46.40
2019-02-27T08:55:18.858Z,46.47
2019-02-27T08:57:38.638Z,45.84
2019-02-27T09:00:17.662Z,45.88
2019-02-27T09:02:44.221Z,45.31
2019-02-27T09:05:10.547Z,45.30
2019-02-27T09:07:37.075Z,45.51
2019-02-27T09:10:11.309Z,45.05
2019-02-27T09:12:37.791Z,44.70
2019-02-27T09:15:06.860Z,44.63
2019-02-27T09:17:33.512Z,44.41
2019-02-27T09:20:00.076Z,44.34
2019-02-27T09:22:26.518Z,44.33
2019-02-27T09:24:53.890Z,44.48
2019-02-27T09:27:20.458Z,44.14
2019-02-27T09:29:46.773Z,43.77
2019-02-27T09:32:13.089Z,43.52
2019-02-27T09:34:40.264Z,43.11
2019-02-27T09:37:06.594Z,42.51
2019-02-27T09:39:35.023Z,42.76
2019-02-27T09:42:01.468Z,42.29
2019-02-27T09:44:27.938Z,41.96
2019-02-27T09:46:54.558Z,42.58
2019-02-27T09:49:20.878Z,42.13
2019-02-27T09:51:47.331Z,42.05
2019-02-27T09:54:14.019Z,42.09
2019-02-27T09:56:40.345Z,41.90
2019-02-27T09:59:07.118Z,41.64
2019-02-27T10:01:35.269Z,40.79
2019-02-27T10:04:01.686Z,40.32
2019-02-27T10:06:28.274Z,40.34
2019-02-27T10:08:56.481Z,40.52
2019-02-27T10:11:23.102Z,40.77
2019-02-27T10:13:49.523Z,39.74
2019-02-27T10:16:15.994Z,39.62
2019-02-27T10:18:42.604Z,39.51
2019-02-27T10:21:11.673Z,38.89
2019-02-27T10:23:37.662Z,38.45
2019-02-27T10:26:04.288Z,38.48
2019-02-27T10:28:30.890Z,37.82
2019-02-27T10:30:57.496Z,37.64
2019-02-27T10:33:25.816Z,37.45
2019-02-27T10:35:52.362Z,36.38
2019-02-27T10:38:18.898Z,35.19
2019-02-27T10:40:46.030Z,35.43
2019-02-27T10:43:13.244Z,35.36
2019-02-27T10:45:39.829Z,34.76
2019-02-27T10:48:06.377Z,34.42
2019-02-27T10:50:35.496Z,35.34
2019-02-27T10:53:01.137Z,35.04
2019-02-27T10:55:27.448Z,33.68
2019-02-27T10:57:53.820Z,32.68
2019-02-27T11:00:29.948Z,33.00
2019-02-27T11:02:57.696Z,33.52
2019-02-27T11:05:27.163Z,33.75
2019-02-27T11:07:53.810Z,32.15
2019-02-27T11:10:21.712Z,32.98
2019-02-27T11:12:48.686Z,33.82
2019-02-27T11:15:17.859Z,33.27
2019-02-27T11:17:44.178Z,33.42
2019-02-27T11:20:11.944Z,31.96
2019-02-27T11:22:38.240Z,32.24
2019-02-27T11:25:09.664Z,32.96
2019-02-27T11:27:36.383Z,33.28
2019-02-27T11:30:15.062Z,32.29
2019-02-27T11:32:41.384Z,30.91
2019-02-27T11:35:08.179Z,29.26
2019-02-27T11:37:34.544Z,27.01
2019-02-27T11:40:02.204Z,24.75
2019-02-27T11:42:28.966Z,23.24
2019-02-27T11:44:57.024Z,22.84
2019-02-27T11:47:23.717Z,20.73
2019-02-27T11:49:50.109Z,19.58
2019-02-27T11:52:16.388Z,19.88
2019-02-27T11:54:43.843Z,20.15
2019-02-27T11:57:10.331Z,19.54
2019-02-27T11:59:36.958Z,19.58
2019-02-27T12:02:03.616Z,17.89
2019-02-27T12:04:29.949Z,17.61
2019-02-27T12:06:56.598Z,18.09
2019-02-27T12:09:23.200Z,17.53
2019-02-27T12:11:49.857Z,16.07
2019-02-27T12:14:16.497Z,15.93
2019-02-27T12:16:43.124Z,14.85
2019-02-27T12:19:09.710Z,15.69
2019-02-27T12:21:36.040Z,15.15
2019-02-27T12:24:02.651Z,15.35
2019-02-27T12:26:29.262Z,16.41
2019-02-27T12:28:55.626Z,15.84
2019-02-27T12:31:22.302Z,15.69
2019-02-27T12:33:48.934Z,15.08
2019-02-27T12:36:16.079Z,15.17
2019-02-27T12:38:43.827Z,15.94
2019-02-27T12:41:10.186Z,15.15
2019-02-27T12:43:36.512Z,16.34
2019-02-27T12:46:03.130Z,15.73
2019-02-27T12:48:29.633Z,14.58
2019-02-27T12:50:56.976Z,14.47
2019-02-27T12:53:23.630Z,13.10
2019-02-27T12:55:49.918Z,14.10
2019-02-27T12:58:16.545Z,13.04
2019-02-27T13:00:43.144Z,13.38
2019-02-27T13:03:09.593Z,14.16
2019-02-27T13:05:36.428Z,13.58
2019-02-27T13:08:03.283Z,13.63
2019-02-27T13:10:34.058Z,12.75
2019-02-27T13:12:58.213Z,12.63
2019-02-27T13:15:26.309Z,13.84
2019-02-27T13:17:56.070Z,12.04
2019-02-27T13:20:28.793Z,12.55
2019-02-27T13:22:55.113Z,11.73
2019-02-27T13:25:24.006Z,13.13
2019-02-27T13:27:49.709Z,12.63
2019-02-27T13:30:19.055Z,12.66
2019-02-27T13:32:45.703Z,12.83
2019-02-27T13:35:12.552Z,14.29
2019-02-27T13:37:43.770Z,14.20
2019-02-27T13:40:19.661Z,14.44
2019-02-27T13:42:53.493Z,14.22
2019-02-27T13:45:25.625Z,14.46
2019-02-27T13:47:52.802Z,14.27
2019-02-27T13:50:26.995Z,13.75
2019-02-27T13:52:54.112Z,13.64
2019-02-27T13:55:22.306Z,12.42
2019-02-27T13:57:50.726Z,12.11
2019-02-27T14:00:25.748Z,12.36
2019-02-27T14:02:52.772Z,12.74
2019-02-27T14:05:24.807Z,13.03
2019-02-27T14:07:57.302Z,12.15
2019-02-27T14:10:24.329Z,13.56
2019-02-27T14:12:50.695Z,14.05
2019-02-27T14:15:20.270Z,14.17
2019-02-27T14:17:46.832Z,14.17
2019-02-27T14:20:19.880Z,13.07
2019-02-27T14:22:47.092Z,12.63
2019-02-27T14:25:20.374Z,12.78
2019-02-27T14:27:48.124Z,12.85
2019-02-27T14:30:22.352Z,13.06
2019-02-27T14:32:57.120Z,14.06
2019-02-27T14:35:24.549Z,13.11
2019-02-27T14:38:00.314Z,14.68
2019-02-27T14:40:27.610Z,13.14
2019-02-27T14:42:59.897Z,13.14
2019-02-27T14:45:26.937Z,14.19
2019-02-27T14:47:53.776Z,14.14
2019-02-27T14:50:22.396Z,13.04
2019-02-27T14:53:00.456Z,11.96
2019-02-27T14:55:28.644Z,12.31
2019-02-27T14:57:56.168Z,12.20
2019-02-27T15:00:27.350Z,13.15
2019-02-27T15:03:02.835Z,13.36
2019-02-27T15:05:29.744Z,13.90
2019-02-27T15:07:56.144Z,14.72
2019-02-27T15:10:23.099Z,15.24
2019-02-27T15:12:53.968Z,15.08
2019-02-27T15:15:29.775Z,15.09
2019-02-27T15:17:56.229Z,15.33
2019-02-27T15:20:41.319Z,15.77
2019-02-27T15:23:54.356Z,15.83
2019-02-27T15:26:45.179Z,14.90
2019-02-27T15:29:09.500Z,15.97
2019-02-27T15:31:35.851Z,19.54
2019-02-27T15:34:02.476Z,22.16
2019-02-27T15:36:30.413Z,25.15
2019-02-27T15:38:56.901Z,28.56
2019-02-27T15:41:23.211Z,29.16
2019-02-27T15:43:57.572Z,29.51
2019-02-27T15:46:21.369Z,30.66
2019-02-27T15:48:46.549Z,31.99
2019-02-27T15:51:13.241Z,32.21
2019-02-27T15:53:39.756Z,33.17
2019-02-27T15:56:08.574Z,32.89
2019-02-27T15:58:34.663Z,33.25
2019-02-27T16:01:02.141Z,33.35
2019-02-27T16:03:29.822Z,34.07
2019-02-27T16:05:56.475Z,34.22
2019-02-27T16:08:25.994Z,34.81
2019-02-27T16:10:55.221Z,35.03
2019-02-27T16:13:21.169Z,35.26
2019-02-27T16:15:48.517Z,35.38
2019-02-27T16:18:15.475Z,35.30
2019-02-27T16:20:42.055Z,35.45
2019-02-27T16:23:08.378Z,35.88
2019-02-27T16:25:34.973Z,36.22
2019-02-27T16:28:01.583Z,36.98
2019-02-27T16:30:33.450Z,37.35
2019-02-27T16:33:00.107Z,37.39
2019-02-27T16:35:26.445Z,37.85
2019-02-27T16:37:56.595Z,38.50
2019-02-27T16:40:25.657Z,38.67
2019-02-27T16:42:52.751Z,39.63
2019-02-27T16:45:36.660Z,40.11
2019-02-27T16:48:02.119Z,40.51
2019-02-27T16:50:28.671Z,41.16
2019-02-27T16:52:55.481Z,42.14
2019-02-27T16:55:26.280Z,42.51
2019-02-27T16:57:56.453Z,42.77
2019-02-27T17:00:31.436Z,43.34
2019-02-27T17:02:57.961Z,43.97
2019-02-27T17:05:24.575Z,44.30
2019-02-27T17:07:51.175Z,44.42
2019-02-27T17:10:37.689Z,44.78
2019-02-27T17:13:05.003Z,45.23
2019-02-27T17:15:35.820Z,45.77
2019-02-27T17:18:00.404Z,46.23
2019-02-27T17:20:27.710Z,46.59
2019-02-27T17:22:54.109Z,46.64
2019-02-27T17:25:20.489Z,46.86
2019-02-27T17:27:49.847Z,47.15
2019-02-27T17:30:21.096Z,47.66
2019-02-27T17:32:47.769Z,47.59
2019-02-27T17:35:14.063Z,47.27
2019-02-27T17:37:40.732Z,47.36
2019-02-27T17:40:16.174Z,47.38
2019-02-27T17:42:42.992Z,47.48
2019-02-27T17:45:14.101Z,47.68
2019-02-27T17:47:40.518Z,47.82
2019-02-27T17:50:09.553Z,48.11
2019-02-27T17:52:36.415Z,48.57
2019-02-27T17:55:06.868Z,48.92
2019-02-27T17:57:33.851Z,49.53
2019-02-27T18:00:00.504Z,49.78
2019-02-27T18:02:26.850Z,50.00
2019-02-27T18:04:53.894Z,49.96
2019-02-27T18:07:20.525Z,50.03
2019-02-27T18:09:46.966Z,49.95
2019-02-27T18:12:13.284Z,50.09
2019-02-27T18:14:43.525Z,50.45
2019-02-27T18:17:08.535Z,51.01
2019-02-27T18:19:34.881Z,51.30
2019-02-27T18:22:01.598Z,51.65
2019-02-27T18:24:33.155Z,51.72
2019-02-27T18:26:56.433Z,51.96
2019-02-27T18:29:22.758Z,52.22
2019-02-27T18:31:49.188Z,52.66
2019-02-27T18:34:15.558Z,53.10
2019-02-27T18:36:43.131Z,53.14
2019-02-27T18:39:10.444Z,53.28
2019-02-27T18:41:36.820Z,53.54
2019-02-27T18:44:04.801Z,53.83
2019-02-27T18:46:31.702Z,53.79
2019-02-27T18:48:58.052Z,54.13
2019-02-27T18:51:24.727Z,54.21
2019-02-27T18:53:51.404Z,54.26
2019-02-27T18:56:18.046Z,54.58
2019-02-27T18:58:44.720Z,54.84
2019-02-27T19:01:11.392Z,55.02
2019-02-27T19:03:37.992Z,55.21
2019-02-27T19:06:04.714Z,55.47
2019-02-27T19:08:31.317Z,55.74
2019-02-27T19:10:57.711Z,55.96
2019-02-27T19:13:24.381Z,55.83
2019-02-27T19:15:50.876Z,55.85
2019-02-27T19:18:17.523Z,55.86
2019-02-27T19:20:45.460Z,56.57
2019-02-27T19:23:17.337Z,56.58
2019-02-27T19:25:41.107Z,57.11
2019-02-27T19:28:07.867Z,57.73
2019-02-27T19:30:34.854Z,58.11
2019-02-27T19:33:02.019Z,58.05
2019-02-27T19:35:31.655Z,58.13
2019-02-27T19:37:58.381Z,57.82
2019-02-27T19:40:29.894Z,57.51
2019-02-27T19:42:56.155Z,57.69
2019-02-27T19:45:24.150Z,58.05
2019-02-27T19:47:54.633Z,58.06
2019-02-27T19:50:19.517Z,58.69
2019-02-27T19:52:46.292Z,58.45
2019-02-27T19:55:12.840Z,58.88
2019-02-27T19:57:42.334Z,58.81
2019-02-27T20:00:33.574Z,59.00
2019-02-27T20:03:01.083Z,58.88
2019-02-27T20:05:25.241Z,57.94
2019-02-27T20:07:52.618Z,56.95
2019-02-27T20:10:19.059Z,56.39
2019-02-27T20:12:47.769Z,56.11
2019-02-27T20:15:18.917Z,56.16
2019-02-27T20:17:45.250Z,56.59
2019-02-27T20:20:21.084Z,56.82
2019-02-27T20:22:52.964Z,57.33
2019-02-27T20:25:18.179Z,57.80
2019-02-27T20:27:45.005Z,58.50
2019-02-27T20:30:17.964Z,58.77
2019-02-27T20:32:45.782Z,58.62
2019-02-27T20:35:12.612Z,58.98
2019-02-27T20:37:40.289Z,58.75
2019-02-27T20:40:11.033Z,59.45
2019-02-27T20:42:38.192Z,59.92
2019-02-27T20:45:20.106Z,60.18
2019-02-27T20:47:47.114Z,60.36
2019-02-27T20:50:21.853Z,60.20
2019-02-27T20:52:46.542Z,60.27
2019-02-27T20:55:14.459Z,60.47
2019-02-27T20:57:42.292Z,60.55
2019-02-27T21:00:14.240Z,60.73
2019-02-27T21:02:40.742Z,60.32
2019-02-27T21:07:36.903Z,60.63
2019-02-27T21:10:09.251Z,60.25
2019-02-27T21:12:37.315Z,60.35
2019-02-27T21:15:09.281Z,60.79
2019-02-27T21:17:36.882Z,61.00
2019-02-27T21:20:11.122Z,60.64
2019-02-27T21:22:36.360Z,60.94
2019-02-27T21:25:05.207Z,61.13
2019-02-27T21:27:33.111Z,61.05
2019-02-27T21:30:00.010Z,61.31
2019-02-27T21:32:26.619Z,61.14
2019-02-27T21:34:55.243Z,61.38
2019-02-27T21:37:23.295Z,61.49
2019-02-27T21:39:49.954Z,61.48
2019-02-27T21:42:19.364Z,61.65
2019-02-27T21:44:45.913Z,61.56
2019-02-27T21:47:13.532Z,61.17
2019-02-27T21:49:40.144Z,61.51
2019-02-27T21:52:06.842Z,61.73
2019-02-27T21:54:38.391Z,61.36
2019-02-27T21:57:01.455Z,61.92
2019-02-27T21:59:28.946Z,62.30
2019-02-27T22:01:56.325Z,62.53
2019-02-27T22:04:23.519Z,63.09
2019-02-27T22:06:49.960Z,63.25
2019-02-27T22:09:16.627Z,63.11
2019-02-27T22:11:43.270Z,63.65
2019-02-27T22:14:09.572Z,64.36
2019-02-27T22:16:36.579Z,64.77
2019-02-27T22:19:03.605Z,64.64
2019-02-27T22:21:31.332Z,65.01
2019-02-27T22:23:58.324Z,65.50
2019-02-27T22:26:24.724Z,65.41
2019-02-27T22:28:54.446Z,65.76
2019-02-27T22:31:19.613Z,65.72
2019-02-27T22:33:46.443Z,66.26
2019-02-27T22:36:13.573Z,66.31
2019-02-27T22:38:40.209Z,66.68
2019-02-27T22:41:09.531Z,66.81
2019-02-27T22:43:35.164Z,67.16
2019-02-27T22:46:01.515Z,67.31
2019-02-27T22:48:28.807Z,67.04
2019-02-27T22:50:55.280Z,66.97
2019-02-27T22:53:21.874Z,67.13
2019-02-27T22:55:48.238Z,67.50
2019-02-27T22:58:14.608Z,67.18
2019-02-27T23:00:50.465Z,67.18
2019-02-27T23:03:23.820Z,67.49
2019-02-27T23:05:50.598Z,67.29
2019-02-27T23:08:17.203Z,67.32
2019-02-27T23:10:44.216Z,67.37
2019-02-27T23:13:12.785Z,67.66
2019-02-27T23:15:40.100Z,67.47
2019-02-27T23:18:07.094Z,67.69
2019-02-27T23:20:33.427Z,67.68
2019-02-27T23:23:02.401Z,67.81
2019-02-27T23:25:28.163Z,67.91
2019-02-27T23:27:57.628Z,68.24
2019-02-27T23:30:23.553Z,68.18
2019-02-27T23:32:49.955Z,68.13
2019-02-27T23:35:16.872Z,68.14
2019-02-27T23:37:43.393Z,68.27
2019-02-27T23:40:09.988Z,68.14
2019-02-27T23:42:36.595Z,68.11
2019-02-27T23:45:10.014Z,68.25
2019-02-27T23:47:35.206Z,68.62
2019-02-27T23:50:01.548Z,69.09
2019-02-27T23:52:28.104Z,68.84
2019-02-27T23:54:54.718Z,68.83
2019-02-27T23:57:23.577Z,68.93
2019-02-27T23:59:49.390Z,69.00
